createdAt,value
2022-09-28T00:01:06.618Z,2.03
2022-09-28T00:03:33.944Z,2.20
2022-09-28T00:06:01.893Z,1.67
2022-09-28T00:08:30.620Z,2.10
2022-09-28T00:10:58.212Z,1.92
2022-09-28T00:13:25.743Z,2.33
2022-09-28T00:15:59.971Z,2.10
2022-09-28T00:18:28.328Z,1.90
2022-09-28T00:21:02.160Z,2.00
2022-09-28T00:23:30.906Z,1.93
2022-09-28T00:26:02.116Z,1.75
2022-09-28T00:28:29.650Z,2.20
2022-09-28T00:30:57.194Z,1.90
2022-09-28T00:33:24.538Z,1.83
2022-09-28T00:35:56.040Z,1.83
2022-09-28T00:38:23.354Z,2.13
2022-09-28T00:40:52.062Z,2.30
2022-09-28T00:43:19.795Z,2.10
2022-09-28T00:45:49.236Z,2.45
2022-09-28T00:48:16.705Z,1.83
2022-09-28T00:50:44.996Z,1.90
2022-09-28T00:53:14.429Z,2.22
2022-09-28T00:55:44.221Z,2.30
2022-09-28T00:58:15.739Z,2.15
2022-09-28T01:00:43.142Z,2.25
2022-09-28T01:03:10.979Z,2.60
2022-09-28T01:05:40.107Z,2.22
2022-09-28T01:08:08.225Z,2.38
2022-09-28T01:10:35.621Z,2.35
2022-09-28T01:13:02.984Z,2.45
2022-09-28T01:15:35.930Z,2.30
2022-09-28T01:18:08.533Z,2.53
2022-09-28T01:20:48.539Z,2.42
2022-09-28T01:23:33.013Z,2.40
2022-09-28T01:26:11.440Z,2.38
2022-09-28T01:28:39.289Z,2.40
2022-09-28T01:31:09.574Z,2.42
2022-09-28T01:33:39.249Z,2.38
2022-09-28T01:36:09.288Z,2.63
2022-09-28T01:38:38.658Z,2.72
2022-09-28T01:41:06.826Z,2.75
2022-09-28T01:43:36.751Z,3.00
2022-09-28T01:46:08.173Z,2.90
2022-09-28T01:48:37.992Z,2.75
2022-09-28T01:51:07.313Z,3.90
2022-09-28T01:53:37.095Z,2.97
2022-09-28T01:56:05.336Z,2.92
2022-09-28T01:58:35.915Z,2.90
2022-09-28T02:01:09.142Z,2.90
2022-09-28T02:03:39.883Z,3.05
2022-09-28T02:06:09.512Z,3.83
2022-09-28T02:08:37.937Z,4.72
2022-09-28T02:11:08.885Z,4.80
2022-09-28T02:13:37.854Z,5.10
2022-09-28T02:16:11.242Z,5.43
2022-09-28T02:18:38.592Z,7.10
2022-09-28T02:21:08.005Z,6.57
2022-09-28T02:23:36.663Z,7.45
2022-09-28T02:26:05.906Z,7.75
2022-09-28T02:28:33.249Z,7.90
2022-09-28T02:31:01.482Z,8.77
2022-09-28T02:33:32.245Z,8.48
2022-09-28T02:36:00.824Z,8.57
2022-09-28T02:38:28.302Z,9.00
2022-09-28T02:41:03.753Z,10.85
2022-09-28T02:43:35.208Z,10.70
2022-09-28T02:46:05.645Z,11.32
2022-09-28T02:48:43.878Z,11.27
2022-09-28T02:51:19.498Z,11.45
2022-09-28T02:56:26.966Z,13.15
2022-09-28T02:58:58.754Z,13.88
2022-09-28T03:01:30.473Z,14.48
2022-09-28T03:04:03.237Z,13.85
2022-09-28T03:06:33.031Z,15.75
2022-09-28T03:09:01.965Z,15.73
2022-09-28T03:11:31.439Z,16.67
2022-09-28T03:13:58.934Z,15.13
2022-09-28T03:16:27.424Z,17.20
2022-09-28T03:18:54.819Z,17.08
2022-09-28T03:21:23.600Z,15.30
2022-09-28T03:23:50.927Z,15.93
2022-09-28T03:26:19.788Z,16.10
2022-09-28T03:28:47.123Z,15.05
2022-09-28T03:31:14.495Z,13.95
2022-09-28T03:33:41.879Z,16.00
2022-09-28T03:36:09.697Z,15.30
2022-09-28T03:38:38.364Z,15.15
2022-09-28T03:41:05.728Z,16.20
2022-09-28T03:43:33.055Z,17.35
2022-09-28T03:46:01.207Z,16.50
2022-09-28T03:48:32.376Z,14.65
2022-09-28T03:51:01.267Z,16.50
2022-09-28T03:53:29.450Z,16.13
2022-09-28T03:56:03.273Z,15.45
2022-09-28T03:58:30.573Z,14.43
2022-09-28T04:01:01.902Z,15.40
2022-09-28T04:03:29.266Z,15.38
2022-09-28T04:05:56.600Z,16.77
2022-09-28T04:08:24.207Z,16.58
2022-09-28T04:10:51.533Z,16.60
2022-09-28T04:13:20.247Z,17.00
2022-09-28T04:15:53.187Z,16.88
2022-09-28T04:18:20.526Z,16.02
2022-09-28T04:20:48.035Z,17.10
2022-09-28T04:23:15.379Z,17.60
2022-09-28T04:25:45.721Z,17.92
2022-09-28T04:28:30.800Z,16.38
2022-09-28T04:30:59.418Z,16.17
2022-09-28T04:33:26.746Z,15.70
2022-09-28T04:35:54.058Z,16.70
2022-09-28T04:38:35.885Z,16.20
2022-09-28T04:41:08.737Z,15.55
2022-09-28T04:43:36.098Z,15.60
2022-09-28T04:46:05.469Z,15.82
2022-09-28T04:48:32.871Z,16.23
2022-09-28T04:51:00.981Z,14.98
2022-09-28T04:53:28.625Z,13.75
2022-09-28T04:55:56.574Z,14.88
2022-09-28T04:58:24.196Z,15.15
2022-09-28T05:00:54.393Z,13.75
2022-09-28T05:03:23.123Z,13.95
2022-09-28T05:05:50.624Z,13.13
2022-09-28T05:08:18.206Z,11.88
2022-09-28T05:10:46.221Z,10.38
2022-09-28T05:13:14.209Z,12.13
2022-09-28T05:15:42.250Z,10.70
2022-09-28T05:18:09.967Z,10.93
2022-09-28T05:20:42.462Z,9.60
2022-09-28T05:23:10.452Z,10.85
2022-09-28T05:25:37.766Z,10.63
2022-09-28T05:28:05.155Z,11.35
2022-09-28T05:30:32.640Z,10.73
2022-09-28T05:32:59.946Z,11.40
2022-09-28T05:35:27.669Z,11.25
2022-09-28T05:37:56.391Z,11.18
2022-09-28T05:40:24.097Z,10.65
2022-09-28T05:42:51.445Z,11.32
2022-09-28T05:45:18.796Z,11.70
2022-09-28T05:47:47.004Z,11.75
2022-09-28T05:50:15.941Z,11.52
2022-09-28T05:52:44.380Z,11.15
2022-09-28T05:55:13.179Z,11.65
2022-09-28T05:57:40.478Z,11.32
2022-09-28T06:00:09.074Z,12.15
2022-09-28T06:02:36.515Z,11.40
2022-09-28T06:05:04.087Z,11.32
2022-09-28T06:07:31.460Z,11.10
2022-09-28T06:09:59.302Z,10.63
2022-09-28T06:12:28.155Z,10.32
2022-09-28T06:14:57.106Z,10.32
2022-09-28T06:17:24.397Z,9.55
2022-09-28T06:19:53.147Z,10.23
2022-09-28T06:22:20.482Z,10.27
2022-09-28T06:24:47.798Z,9.23
2022-09-28T06:27:15.186Z,9.55
2022-09-28T06:29:43.925Z,9.48
2022-09-28T06:32:12.306Z,8.32
2022-09-28T06:34:39.611Z,9.00
2022-09-28T06:37:07.067Z,9.35
2022-09-28T06:39:34.484Z,8.23
2022-09-28T06:42:03.187Z,7.93
2022-09-28T06:44:32.235Z,9.02
2022-09-28T06:47:01.125Z,7.95
2022-09-28T06:49:30.116Z,8.25
2022-09-28T06:51:57.471Z,7.43
2022-09-28T06:54:25.821Z,7.75
2022-09-28T06:56:53.179Z,8.43
2022-09-28T06:59:21.009Z,8.60
2022-09-28T07:01:48.311Z,7.65
2022-09-28T07:04:17.053Z,7.10
2022-09-28T07:06:47.480Z,7.15
2022-09-28T07:09:30.437Z,6.22
2022-09-28T07:12:00.215Z,6.18
2022-09-28T07:14:46.146Z,6.45
2022-09-28T07:17:15.198Z,7.28
2022-09-28T07:19:44.371Z,6.65
2022-09-28T07:22:18.449Z,6.78
2022-09-28T07:24:46.663Z,7.15
2022-09-28T07:27:13.949Z,7.78
2022-09-28T07:29:41.263Z,6.57
2022-09-28T07:32:09.312Z,6.82
2022-09-28T07:34:39.917Z,6.95
2022-09-28T07:37:10.904Z,6.22
2022-09-28T07:39:58.292Z,5.38
2022-09-28T07:42:26.171Z,6.15
2022-09-28T07:44:54.262Z,5.82
2022-09-28T07:47:29.664Z,6.68
2022-09-28T07:49:58.302Z,5.63
2022-09-28T07:52:28.625Z,5.78
2022-09-28T07:54:56.192Z,6.70
2022-09-28T07:57:23.850Z,6.20
2022-09-28T07:59:53.446Z,6.65
2022-09-28T08:02:21.344Z,6.20
2022-09-28T08:04:49.030Z,5.85
2022-09-28T08:07:21.572Z,6.30
2022-09-28T08:09:52.376Z,5.70
2022-09-28T08:12:19.731Z,6.30
2022-09-28T08:14:47.054Z,5.53
2022-09-28T08:17:15.522Z,5.72
2022-09-28T08:19:59.408Z,5.75
2022-09-28T08:22:26.990Z,6.22
2022-09-28T08:24:55.626Z,5.45
2022-09-28T08:27:22.990Z,4.50
2022-09-28T08:29:50.327Z,4.15
2022-09-28T08:32:18.234Z,4.25
2022-09-28T08:34:45.649Z,4.38
2022-09-28T08:37:13.036Z,4.53
2022-09-28T08:39:40.374Z,4.15
2022-09-28T08:42:15.597Z,3.15
2022-09-28T08:47:33.097Z,3.70
2022-09-28T08:50:02.438Z,3.28
2022-09-28T08:52:33.380Z,2.72
2022-09-28T08:55:03.556Z,2.75
2022-09-28T08:57:34.810Z,2.60
2022-09-28T09:00:03.049Z,3.00
2022-09-28T09:02:33.294Z,2.83
2022-09-28T09:05:02.580Z,2.58
2022-09-28T09:07:37.592Z,1.92
2022-09-28T09:10:10.322Z,2.05
2022-09-28T09:12:41.129Z,1.60
2022-09-28T09:15:17.720Z,1.90
2022-09-28T09:17:49.699Z,1.80
2022-09-28T09:20:20.037Z,1.60
2022-09-28T09:22:55.624Z,1.50
2022-09-28T09:25:26.587Z,2.25
2022-09-28T09:28:07.844Z,50.97
2022-09-28T09:30:42.246Z,2.47
2022-09-28T09:33:24.713Z,2.80
2022-09-28T09:35:58.220Z,1.55
2022-09-28T09:38:34.186Z,1.63
2022-09-28T09:41:07.094Z,1.23
2022-09-28T09:43:58.734Z,1.63
2022-09-28T09:46:31.255Z,1.75
2022-09-28T09:49:02.180Z,1.70
2022-09-28T09:51:34.702Z,1.33
2022-09-28T09:54:04.005Z,1.80
2022-09-28T09:56:34.486Z,1.00
2022-09-28T09:59:07.786Z,1.63
2022-09-28T10:01:36.900Z,1.20
2022-09-28T10:04:06.074Z,1.40
2022-09-28T10:06:34.784Z,1.20
2022-09-28T10:09:03.842Z,1.30
2022-09-28T10:11:32.771Z,1.65
2022-09-28T10:14:00.134Z,1.58
2022-09-28T10:16:28.884Z,1.67
2022-09-28T10:18:56.247Z,1.38
2022-09-28T10:21:24.415Z,1.58
2022-09-28T10:23:56.184Z,1.30
2022-09-28T10:26:25.548Z,1.70
2022-09-28T10:28:54.158Z,1.48
2022-09-28T10:31:39.536Z,1.40
2022-09-28T10:34:08.005Z,1.42
2022-09-28T10:36:45.221Z,1.40
2022-09-28T10:39:22.661Z,1.25
2022-09-28T10:41:50.802Z,1.10
2022-09-28T10:44:19.361Z,1.60
2022-09-28T10:46:56.507Z,1.40
2022-09-28T10:49:24.545Z,1.30
2022-09-28T10:51:53.392Z,1.25
2022-09-28T10:54:21.421Z,1.10
2022-09-28T10:56:49.549Z,1.00
2022-09-28T10:59:42.468Z,1.35
2022-09-28T11:02:20.526Z,0.80
2022-09-28T11:04:51.785Z,1.00
2022-09-28T11:07:20.268Z,1.40
2022-09-28T11:09:48.856Z,0.80
2022-09-28T11:12:17.502Z,0.95
2022-09-28T11:14:46.049Z,1.02
2022-09-28T11:17:19.018Z,1.02
2022-09-28T11:19:46.757Z,0.80
2022-09-28T11:22:21.257Z,1.00
2022-09-28T11:24:48.699Z,1.00
2022-09-28T11:27:22.986Z,1.15
2022-09-28T11:29:55.629Z,0.90
2022-09-28T11:32:24.999Z,1.00
2022-09-28T11:34:59.575Z,1.15
2022-09-28T11:37:43.286Z,1.02
2022-09-28T11:40:20.137Z,0.75
2022-09-28T11:42:50.598Z,0.82
2022-09-28T11:45:30.964Z,1.25
2022-09-28T11:48:02.270Z,1.27
2022-09-28T11:50:35.497Z,1.10
2022-09-28T11:53:10.550Z,1.30
2022-09-28T11:55:41.383Z,1.00
2022-09-28T11:58:12.708Z,0.77
2022-09-28T12:00:44.343Z,1.17
2022-09-28T12:03:15.910Z,0.90
2022-09-28T12:05:45.515Z,1.00
2022-09-28T12:08:15.527Z,0.75
2022-09-28T12:10:48.005Z,0.75
2022-09-28T12:13:17.288Z,0.80
2022-09-28T12:16:17.148Z,1.08
2022-09-28T12:18:39.771Z,0.90
2022-09-28T12:21:10.508Z,0.98
2022-09-28T12:23:39.227Z,1.27
2022-09-28T12:26:15.524Z,1.20
2022-09-28T12:28:44.804Z,0.90
2022-09-28T12:31:15.804Z,1.27
2022-09-28T12:33:46.915Z,1.00
2022-09-28T12:36:21.740Z,0.90
2022-09-28T12:41:43.947Z,0.88
2022-09-28T12:44:24.282Z,1.10
2022-09-28T12:46:59.113Z,0.90
2022-09-28T12:52:25.077Z,0.90
2022-09-28T12:54:59.369Z,0.80
2022-09-28T12:57:39.214Z,1.23
2022-09-28T13:00:09.349Z,0.68
2022-09-28T13:02:47.056Z,0.70
2022-09-28T13:05:19.791Z,1.00
2022-09-28T13:07:53.202Z,0.90
2022-09-28T13:10:25.603Z,1.00
2022-09-28T13:13:01.861Z,1.17
2022-09-28T13:15:44.450Z,0.90
2022-09-28T13:18:14.246Z,1.60
2022-09-28T13:20:53.982Z,1.13
2022-09-28T13:23:24.713Z,1.02
2022-09-28T13:25:55.452Z,1.20
2022-09-28T13:28:27.021Z,1.20
2022-09-28T13:30:56.016Z,1.23
2022-09-28T13:33:26.949Z,1.10
2022-09-28T13:35:54.915Z,1.00
2022-09-28T13:38:43.935Z,1.27
2022-09-28T13:41:12.418Z,1.25
2022-09-28T13:43:52.814Z,1.13
2022-09-28T13:46:23.101Z,0.90
2022-09-28T13:48:56.563Z,1.20
2022-09-28T13:51:39.068Z,1.10
2022-09-28T13:54:15.696Z,0.95
2022-09-28T13:56:49.919Z,1.17
2022-09-28T13:59:19.199Z,1.15
2022-09-28T14:01:51.526Z,1.40
2022-09-28T14:04:20.853Z,1.00
2022-09-28T14:06:53.557Z,1.25
2022-09-28T14:09:37.865Z,1.40
2022-09-28T14:12:27.388Z,1.50
2022-09-28T14:14:54.953Z,1.40
2022-09-28T14:17:50.348Z,2.05
2022-09-28T14:20:18.514Z,1.35
2022-09-28T14:22:52.537Z,1.38
2022-09-28T14:25:23.498Z,1.30
2022-09-28T14:28:02.094Z,1.55
2022-09-28T14:30:36.869Z,1.50
2022-09-28T14:33:16.059Z,1.70
2022-09-28T14:35:50.088Z,1.40
2022-09-28T14:38:36.654Z,1.60
2022-09-28T14:41:11.020Z,1.73
2022-09-28T14:43:58.399Z,1.10
2022-09-28T14:46:40.337Z,0.80
2022-09-28T14:49:24.783Z,0.93
2022-09-28T14:52:05.079Z,0.53
2022-09-28T14:54:49.312Z,0.80
2022-09-28T14:57:17.647Z,0.98
2022-09-28T14:59:48.124Z,1.00
2022-09-28T15:02:21.010Z,0.80
2022-09-28T15:04:50.196Z,0.90
2022-09-28T15:07:19.418Z,0.55
2022-09-28T15:09:49.483Z,0.90
2022-09-28T15:12:17.930Z,1.20
2022-09-28T15:14:48.669Z,1.23
2022-09-28T15:17:19.921Z,1.65
2022-09-28T15:19:52.098Z,1.30
2022-09-28T15:22:20.914Z,1.75
2022-09-28T15:24:59.981Z,3.53
2022-09-28T15:27:34.974Z,2.20
2022-09-28T15:30:16.970Z,1.85
2022-09-28T15:32:44.266Z,1.50
2022-09-28T15:35:14.360Z,1.35
2022-09-28T15:37:41.809Z,1.95
2022-09-28T15:40:13.138Z,1.70
2022-09-28T15:42:40.490Z,1.38
2022-09-28T15:45:26.392Z,1.98
2022-09-28T15:47:55.985Z,1.80
2022-09-28T15:50:24.257Z,1.52
2022-09-28T15:52:55.943Z,2.17
2022-09-28T15:55:24.918Z,1.50
2022-09-28T15:58:04.886Z,1.90
2022-09-28T16:00:33.808Z,1.15
2022-09-28T16:03:03.503Z,1.45
2022-09-28T16:05:37.212Z,0.90
2022-09-28T16:08:05.607Z,0.95
2022-09-28T16:10:34.445Z,1.40
2022-09-28T16:13:10.687Z,0.80
2022-09-28T16:15:40.271Z,0.98
2022-09-28T16:18:18.008Z,1.42
2022-09-28T16:20:46.307Z,1.15
2022-09-28T16:23:20.060Z,1.48
2022-09-28T16:25:51.505Z,1.35
2022-09-28T16:28:25.268Z,1.90
2022-09-28T16:31:01.761Z,1.10
2022-09-28T16:33:30.091Z,1.75
2022-09-28T16:36:02.703Z,1.05
2022-09-28T16:38:30.663Z,0.90
2022-09-28T16:41:01.262Z,0.80
2022-09-28T16:43:30.202Z,0.90
2022-09-28T16:45:58.250Z,0.90
2022-09-28T16:48:28.275Z,1.15
2022-09-28T16:50:55.588Z,1.20
2022-09-28T16:53:40.541Z,1.20
2022-09-28T16:56:08.139Z,0.93
2022-09-28T16:58:35.961Z,1.60
2022-09-28T17:01:03.476Z,1.38
2022-09-28T17:03:32.324Z,1.30
2022-09-28T17:05:59.702Z,1.20
2022-09-28T17:08:27.342Z,1.60
2022-09-28T17:11:13.972Z,1.30
2022-09-28T17:13:43.571Z,2.03
2022-09-28T17:16:12.533Z,1.58
2022-09-28T17:18:41.391Z,1.60
2022-09-28T17:21:11.724Z,1.80
2022-09-28T17:23:39.042Z,2.05
2022-09-28T17:26:06.629Z,5.00
2022-09-28T17:28:35.282Z,1.80
2022-09-28T17:31:02.658Z,2.00
2022-09-28T17:33:30.157Z,2.20
2022-09-28T17:36:00.847Z,2.25
2022-09-28T17:38:28.516Z,2.40
2022-09-28T17:40:55.906Z,2.60
2022-09-28T17:43:23.398Z,6.35
2022-09-28T17:45:50.900Z,3.80
2022-09-28T17:48:21.099Z,5.70
2022-09-28T17:50:48.593Z,4.05
2022-09-28T17:53:17.284Z,4.57
2022-09-28T17:55:44.761Z,3.63
2022-09-28T17:58:16.446Z,4.85
2022-09-28T18:00:43.879Z,3.40
2022-09-28T18:03:13.944Z,4.00
2022-09-28T18:05:41.299Z,15.45
2022-09-28T18:08:09.634Z,9.85
2022-09-28T18:10:38.356Z,11.82
2022-09-28T18:13:05.678Z,10.07
2022-09-28T18:15:32.988Z,36.03
2022-09-28T18:18:00.438Z,11.38
2022-09-28T18:20:27.759Z,11.73
2022-09-28T18:22:55.216Z,13.50
2022-09-28T18:25:22.526Z,7.85
2022-09-28T18:27:53.017Z,4.03
2022-09-28T18:30:20.366Z,4.10
2022-09-28T18:32:47.726Z,4.70
2022-09-28T18:35:17.452Z,5.18
2022-09-28T18:37:48.786Z,20.35
2022-09-28T18:40:16.132Z,5.47
2022-09-28T18:42:43.520Z,13.82
2022-09-28T18:45:13.042Z,8.75
2022-09-28T18:47:40.806Z,8.73
2022-09-28T18:50:08.663Z,10.90
2022-09-28T18:52:36.624Z,16.90
2022-09-28T18:55:03.967Z,5.93
2022-09-28T18:57:33.003Z,4.93
2022-09-28T19:00:00.326Z,5.68
2022-09-28T19:02:29.072Z,5.80
2022-09-28T19:04:56.397Z,5.88
2022-09-28T19:07:23.899Z,5.13
2022-09-28T19:09:52.721Z,4.88
2022-09-28T19:12:20.423Z,5.05
2022-09-28T19:14:47.963Z,5.07
2022-09-28T19:17:15.351Z,5.90
2022-09-28T19:19:44.036Z,5.13
2022-09-28T19:22:12.572Z,6.30
2022-09-28T19:24:39.893Z,5.40
2022-09-28T19:27:07.223Z,6.10
2022-09-28T19:29:34.534Z,7.85
2022-09-28T19:32:01.995Z,6.18
2022-09-28T19:34:30.007Z,5.95
2022-09-28T19:37:00.979Z,5.57
2022-09-28T19:39:28.279Z,6.35
2022-09-28T19:41:57.494Z,5.95
2022-09-28T19:44:25.979Z,6.18
2022-09-28T19:46:54.426Z,5.20
2022-09-28T19:49:22.499Z,5.45
2022-09-28T19:52:11.614Z,4.68
2022-09-28T19:54:39.859Z,4.80
2022-09-28T19:57:08.306Z,4.88
2022-09-28T19:59:36.415Z,4.28
2022-09-28T20:02:03.859Z,3.78
2022-09-28T20:04:31.233Z,3.50
2022-09-28T20:06:58.890Z,3.60
2022-09-28T20:09:26.195Z,3.00
2022-09-28T20:11:55.202Z,3.13
2022-09-28T20:14:24.587Z,2.78
2022-09-28T20:16:55.594Z,2.83
2022-09-28T20:19:23.238Z,3.22
2022-09-28T20:21:50.924Z,3.13
2022-09-28T20:24:18.341Z,3.10
2022-09-28T20:26:45.808Z,3.08
2022-09-28T20:29:14.578Z,3.10
2022-09-28T20:31:42.559Z,3.00
2022-09-28T20:34:10.330Z,3.15
2022-09-28T20:36:37.682Z,2.83
2022-09-28T20:39:05.065Z,2.83
2022-09-28T20:41:34.611Z,3.33
2022-09-28T20:44:05.423Z,3.05
2022-09-28T20:46:35.336Z,2.58
2022-09-28T20:49:02.907Z,3.13
2022-09-28T20:51:30.267Z,3.20
2022-09-28T20:53:58.388Z,3.10
2022-09-28T20:56:26.322Z,2.78
2022-09-28T20:58:54.121Z,2.70
2022-09-28T21:01:22.453Z,2.70
2022-09-28T21:03:51.987Z,2.60
2022-09-28T21:06:19.948Z,3.30
2022-09-28T21:08:47.682Z,3.47
2022-09-28T21:11:15.527Z,4.07
2022-09-28T21:13:42.916Z,8.80
2022-09-28T21:16:10.697Z,3.90
2022-09-28T21:18:38.251Z,5.03
2022-09-28T21:21:08.412Z,3.45
2022-09-28T21:23:36.097Z,3.25
2022-09-28T21:26:04.578Z,3.53
2022-09-28T21:28:31.915Z,3.72
2022-09-28T21:30:59.321Z,3.33
2022-09-28T21:33:26.747Z,3.55
2022-09-28T21:35:54.066Z,3.65
2022-09-28T21:38:22.723Z,2.90
2022-09-28T21:40:55.460Z,3.40
2022-09-28T21:43:22.829Z,3.10
2022-09-28T21:45:50.673Z,3.05
2022-09-28T21:48:18.114Z,3.78
2022-09-28T21:50:54.488Z,3.50
2022-09-28T21:53:23.212Z,4.05
2022-09-28T21:55:52.303Z,3.63
2022-09-28T21:58:23.128Z,3.60
2022-09-28T22:00:54.594Z,4.03
2022-09-28T22:03:24.437Z,4.35
2022-09-28T22:05:52.109Z,4.55
2022-09-28T22:08:19.464Z,4.78
2022-09-28T22:10:58.025Z,4.93
2022-09-28T22:13:25.381Z,4.95
2022-09-28T22:15:53.370Z,5.00
2022-09-28T22:18:20.878Z,4.78
2022-09-28T22:20:48.201Z,4.10
2022-09-28T22:23:15.496Z,4.82
2022-09-28T22:25:42.770Z,4.00
2022-09-28T22:28:11.446Z,3.92
2022-09-28T22:30:38.736Z,4.40
2022-09-28T22:33:06.074Z,4.32
2022-09-28T22:35:33.384Z,4.30
2022-09-28T22:38:00.718Z,4.07
2022-09-28T22:40:28.014Z,3.75
2022-09-28T22:42:55.569Z,2.83
2022-09-28T22:45:24.191Z,3.55
2022-09-28T22:47:51.517Z,4.03
2022-09-28T22:50:18.835Z,5.10
2022-09-28T22:52:46.129Z,4.75
2022-09-28T22:55:13.876Z,3.38
2022-09-28T22:57:41.182Z,3.22
2022-09-28T23:00:09.343Z,3.83
2022-09-28T23:02:38.045Z,3.10
2022-09-28T23:05:05.916Z,3.35
2022-09-28T23:07:33.211Z,3.05
2022-09-28T23:10:00.509Z,2.92
2022-09-28T23:12:29.644Z,3.05
2022-09-28T23:14:57.004Z,4.00
2022-09-28T23:17:24.336Z,3.40
2022-09-28T23:19:53.260Z,3.85
2022-09-28T23:22:20.552Z,4.40
2022-09-28T23:24:47.913Z,5.78
2022-09-28T23:27:15.223Z,5.60
2022-09-28T23:29:46.703Z,5.78
2022-09-28T23:32:14.288Z,5.75
2022-09-28T23:34:41.585Z,5.18
2022-09-28T23:37:10.289Z,4.82
2022-09-28T23:39:37.758Z,4.53
2022-09-28T23:42:05.561Z,5.38
2022-09-28T23:44:33.078Z,4.15
2022-09-28T23:47:00.421Z,4.07
2022-09-28T23:49:28.520Z,4.45
2022-09-28T23:51:55.995Z,4.00
2022-09-28T23:54:24.660Z,4.20
2022-09-28T23:56:51.981Z,4.00
2022-09-28T23:59:20.629Z,4.32
